Impacts METAR Board INFO
IDs:

KDTW - Detroit Metro/Wayne, MI, US

Updated at: 1906 UTC 20 Jan 2018
Potential Impact None Slight Moderate High
Time20/07Z 20/08Z 20/09Z 20/10Z 20/11Z 20/12Z 20/13Z 20/14Z 20/15Z 20/16Z 20/17Z 20/18Z 20/19Z
VIS10 10 10 10 10 10 10 10 10 10 10 10 10
CIG180 180 240 200 200 200 250 240 240 240 240 240 240
CoverBKNOVCOVCOVCOVCBKNBKNBKNBKNBKNBKNBKNBKN
FltCatVFRVFRVFRVFRVFRVFRVFRVFRVFRVFRVFRVFRVFR
WX--------------------------
WDir220230220220220210230220230230240220230
WSpd17 15 13 14 11 12 11 10 13 14 12 10 10
WGst-- -- -- -- -- -- -- -- -- -- -- -- --
Raw hourly METARs
KDTW 200653Z 22017KT 10SM BKN180 01/M04 A2978 RMK AO2 PK WND 21026/0555 SLP089 T00111044
KDTW 200753Z 23015KT 10SM OVC180 01/M04 A2980 RMK AO2 SLP097 T00111039
KDTW 200853Z 22013KT 10SM SCT180 OVC240 01/M04 A2981 RMK AO2 SLP099 T00111039 53008
KDTW 200953Z 22014KT 10SM OVC200 01/M04 A2982 RMK AO2 SLP104 T00111039
KDTW 201053Z 22011KT 10SM OVC200 01/M04 A2985 RMK AO2 SLP112 T00111039
KDTW 201153Z 21012KT 10SM BKN200 01/M04 A2986 RMK AO2 SLP119 T00061039 10011 20006 53018
KDTW 201253Z 23011KT 10SM SCT200 BKN250 00/M04 A2989 RMK AO2 SLP129 T00001044
KDTW 201353Z 22010KT 10SM FEW180 BKN240 01/M04 A2991 RMK AO2 SLP135 T00111039
KDTW 201453Z 23013KT 10SM FEW180 BKN240 02/M03 A2994 RMK AO2 SLP143 T00221033 51024 $
KDTW 201553Z 23014KT 10SM BKN240 03/M03 A2994 RMK AO2 SLP146 T00281033 $
KDTW 201653Z 24012KT 10SM FEW180 BKN240 04/M02 A2995 RMK AO2 SLP145 T00441022 $
KDTW 201753Z 22010KT 10SM FEW180 BKN240 05/M02 A2994 RMK AO2 SLP145 T00501017 10050 20000 50003 $
KDTW 201853Z 23010KT 10SM FEW180 BKN240 06/M02 A2994 RMK AO2 SLP144 T00561017 $